sensor_id;sensor_type;location;lat;lon;timestamp;temperature;humidity
43183;DHT22;28802;38.578;-0.066;2023-03-02T00:04:25;7.20;99.90
43183;DHT22;28802;38.578;-0.066;2023-03-02T00:06:56;7.10;99.90
43183;DHT22;28802;38.578;-0.066;2023-03-02T00:09:26;7.20;99.90
43183;DHT22;28802;38.578;-0.066;2023-03-02T00:11:52;7.10;99.90
43183;DHT22;28802;38.578;-0.066;2023-03-02T00:14:21;6.80;99.90
43183;DHT22;28802;38.578;-0.066;2023-03-02T00:16:47;6.70;99.90
43183;DHT22;28802;38.578;-0.066;2023-03-02T00:19:14;6.70;99.90
43183;DHT22;28802;38.578;-0.066;2023-03-02T00:21:40;6.70;99.90
43183;DHT22;28802;38.578;-0.066;2023-03-02T00:24:07;6.90;99.90
43183;DHT22;28802;38.578;-0.066;2023-03-02T00:26:34;7.00;99.90
43183;DHT22;28802;38.578;-0.066;2023-03-02T00:29:00;7.00;99.90
43183;DHT22;28802;38.578;-0.066;2023-03-02T00:31:26;7.00;99.90
43183;DHT22;28802;38.578;-0.066;2023-03-02T00:33:53;6.80;99.90
43183;DHT22;28802;38.578;-0.066;2023-03-02T00:36:20;6.60;99.90
43183;DHT22;28802;38.578;-0.066;2023-03-02T00:38:48;6.90;99.90
43183;DHT22;28802;38.578;-0.066;2023-03-02T00:41:15;6.70;99.90
43183;DHT22;28802;38.578;-0.066;2023-03-02T00:43:41;6.60;99.90
43183;DHT22;28802;38.578;-0.066;2023-03-02T00:46:18;6.40;99.90
43183;DHT22;28802;38.578;-0.066;2023-03-02T00:48:45;6.40;99.90
43183;DHT22;28802;38.578;-0.066;2023-03-02T00:51:11;6.20;99.90
43183;DHT22;28802;38.578;-0.066;2023-03-02T00:53:38;6.10;99.90
43183;DHT22;28802;38.578;-0.066;2023-03-02T00:56:05;6.10;99.90
43183;DHT22;28802;38.578;-0.066;2023-03-02T00:58:35;6.30;99.90
43183;DHT22;28802;38.578;-0.066;2023-03-02T01:01:10;6.40;99.90
43183;DHT22;28802;38.578;-0.066;2023-03-02T01:03:40;6.50;99.90
43183;DHT22;28802;38.578;-0.066;2023-03-02T01:06:16;6.40;99.90
43183;DHT22;28802;38.578;-0.066;2023-03-02T01:08:43;6.50;99.90
43183;DHT22;28802;38.578;-0.066;2023-03-02T01:11:16;6.40;99.90
43183;DHT22;28802;38.578;-0.066;2023-03-02T01:13:43;6.40;99.90
43183;DHT22;28802;38.578;-0.066;2023-03-02T01:16:09;6.40;99.90
43183;DHT22;28802;38.578;-0.066;2023-03-02T01:18:36;6.40;99.90
43183;DHT22;28802;38.578;-0.066;2023-03-02T01:21:13;6.40;99.90
43183;DHT22;28802;38.578;-0.066;2023-03-02T01:23:40;6.50;99.90
43183;DHT22;28802;38.578;-0.066;2023-03-02T01:26:06;6.60;99.90
43183;DHT22;28802;38.578;-0.066;2023-03-02T01:28:32;6.60;99.90
43183;DHT22;28802;38.578;-0.066;2023-03-02T01:30:58;6.70;99.90
43183;DHT22;28802;38.578;-0.066;2023-03-02T01:33:27;6.90;99.90
43183;DHT22;28802;38.578;-0.066;2023-03-02T01:35:53;6.80;99.90
43183;DHT22;28802;38.578;-0.066;2023-03-02T01:38:19;6.70;99.90
43183;DHT22;28802;38.578;-0.066;2023-03-02T01:40:44;6.60;99.90
43183;DHT22;28802;38.578;-0.066;2023-03-02T01:43:12;6.60;99.90
43183;DHT22;28802;38.578;-0.066;2023-03-02T01:48:15;6.40;99.90
43183;DHT22;28802;38.578;-0.066;2023-03-02T01:50:43;6.60;99.90
43183;DHT22;28802;38.578;-0.066;2023-03-02T01:53:11;6.80;99.90
43183;DHT22;28802;38.578;-0.066;2023-03-02T01:55:38;6.80;99.90
43183;DHT22;28802;38.578;-0.066;2023-03-02T01:58:05;6.60;99.90
43183;DHT22;28802;38.578;-0.066;2023-03-02T02:00:36;6.40;99.90
43183;DHT22;28802;38.578;-0.066;2023-03-02T02:03:26;6.40;99.90
43183;DHT22;28802;38.578;-0.066;2023-03-02T02:08:48;6.40;99.90
43183;DHT22;28802;38.578;-0.066;2023-03-02T02:11:15;6.40;99.90
43183;DHT22;28802;38.578;-0.066;2023-03-02T02:13:41;6.40;99.90
43183;DHT22;28802;38.578;-0.066;2023-03-02T02:16:08;6.40;99.90
43183;DHT22;28802;38.578;-0.066;2023-03-02T02:18:37;6.60;99.90
43183;DHT22;28802;38.578;-0.066;2023-03-02T02:21:04;6.60;99.90
43183;DHT22;28802;38.578;-0.066;2023-03-02T02:23:46;6.60;99.90
43183;DHT22;28802;38.578;-0.066;2023-03-02T02:26:27;6.50;99.90
43183;DHT22;28802;38.578;-0.066;2023-03-02T02:29:17;6.50;99.90
43183;DHT22;28802;38.578;-0.066;2023-03-02T02:31:54;6.70;99.90
43183;DHT22;28802;38.578;-0.066;2023-03-02T02:37:12;7.00;99.90
43183;DHT22;28802;38.578;-0.066;2023-03-02T02:39:43;7.00;99.90
43183;DHT22;28802;38.578;-0.066;2023-03-02T02:42:17;7.10;99.90
43183;DHT22;28802;38.578;-0.066;2023-03-02T02:44:44;7.10;99.90
43183;DHT22;28802;38.578;-0.066;2023-03-02T02:47:19;7.10;99.90
43183;DHT22;28802;38.578;-0.066;2023-03-02T02:49:49;7.10;99.90
43183;DHT22;28802;38.578;-0.066;2023-03-02T02:52:17;7.10;99.90
43183;DHT22;28802;38.578;-0.066;2023-03-02T02:54:48;7.20;99.90
43183;DHT22;28802;38.578;-0.066;2023-03-02T02:57:15;7.30;99.90
43183;DHT22;28802;38.578;-0.066;2023-03-02T02:59:52;7.40;99.90
43183;DHT22;28802;38.578;-0.066;2023-03-02T03:02:26;7.40;99.90
43183;DHT22;28802;38.578;-0.066;2023-03-02T03:04:52;7.50;99.90
43183;DHT22;28802;38.578;-0.066;2023-03-02T03:07:32;7.50;99.90
43183;DHT22;28802;38.578;-0.066;2023-03-02T03:10:10;7.60;99.90
43183;DHT22;28802;38.578;-0.066;2023-03-02T03:12:39;7.60;99.90
43183;DHT22;28802;38.578;-0.066;2023-03-02T03:15:06;7.70;99.90
43183;DHT22;28802;38.578;-0.066;2023-03-02T03:17:33;7.60;99.90
43183;DHT22;28802;38.578;-0.066;2023-03-02T03:20:01;7.60;99.90
43183;DHT22;28802;38.578;-0.066;2023-03-02T03:22:37;7.70;99.90
43183;DHT22;28802;38.578;-0.066;2023-03-02T03:25:05;7.60;99.90
43183;DHT22;28802;38.578;-0.066;2023-03-02T03:27:31;7.40;99.90
43183;DHT22;28802;38.578;-0.066;2023-03-02T03:30:00;7.40;99.90
43183;DHT22;28802;38.578;-0.066;2023-03-02T03:32:28;7.30;99.90
43183;DHT22;28802;38.578;-0.066;2023-03-02T03:34:55;7.50;99.90
43183;DHT22;28802;38.578;-0.066;2023-03-02T03:37:25;7.40;99.90
43183;DHT22;28802;38.578;-0.066;2023-03-02T03:39:52;7.50;99.90
43183;DHT22;28802;38.578;-0.066;2023-03-02T03:42:18;7.40;99.90
43183;DHT22;28802;38.578;-0.066;2023-03-02T03:44:45;7.50;99.90
43183;DHT22;28802;38.578;-0.066;2023-03-02T03:47:11;7.40;99.90
43183;DHT22;28802;38.578;-0.066;2023-03-02T03:49:37;7.40;99.90
43183;DHT22;28802;38.578;-0.066;2023-03-02T03:52:05;7.30;99.90
43183;DHT22;28802;38.578;-0.066;2023-03-02T03:54:31;7.20;99.90
43183;DHT22;28802;38.578;-0.066;2023-03-02T03:56:58;7.10;99.90
43183;DHT22;28802;38.578;-0.066;2023-03-02T03:59:27;7.00;99.90
43183;DHT22;28802;38.578;-0.066;2023-03-02T04:01:59;7.00;99.90
43183;DHT22;28802;38.578;-0.066;2023-03-02T04:04:34;6.80;99.90
43183;DHT22;28802;38.578;-0.066;2023-03-02T04:07:04;6.70;99.90
43183;DHT22;28802;38.578;-0.066;2023-03-02T04:09:31;6.70;99.90
43183;DHT22;28802;38.578;-0.066;2023-03-02T04:12:03;6.70;99.90
43183;DHT22;28802;38.578;-0.066;2023-03-02T04:14:30;6.60;99.90
43183;DHT22;28802;38.578;-0.066;2023-03-02T04:16:56;6.70;99.90
43183;DHT22;28802;38.578;-0.066;2023-03-02T04:19:23;6.60;99.90
43183;DHT22;28802;38.578;-0.066;2023-03-02T04:21:53;6.70;99.90
43183;DHT22;28802;38.578;-0.066;2023-03-02T04:24:21;6.60;99.90
43183;DHT22;28802;38.578;-0.066;2023-03-02T04:26:49;6.80;99.90
43183;DHT22;28802;38.578;-0.066;2023-03-02T04:29:16;7.00;99.90
43183;DHT22;28802;38.578;-0.066;2023-03-02T04:31:42;7.10;99.90
43183;DHT22;28802;38.578;-0.066;2023-03-02T04:34:09;7.10;99.90
43183;DHT22;28802;38.578;-0.066;2023-03-02T04:36:39;7.30;99.90
43183;DHT22;28802;38.578;-0.066;2023-03-02T04:39:09;7.50;99.90
43183;DHT22;28802;38.578;-0.066;2023-03-02T04:41:36;7.40;99.90
43183;DHT22;28802;38.578;-0.066;2023-03-02T04:44:02;7.50;99.90
43183;DHT22;28802;38.578;-0.066;2023-03-02T04:46:28;7.50;99.90
43183;DHT22;28802;38.578;-0.066;2023-03-02T04:48:54;7.70;99.90
43183;DHT22;28802;38.578;-0.066;2023-03-02T04:51:27;7.90;99.90
43183;DHT22;28802;38.578;-0.066;2023-03-02T04:53:55;7.90;99.90
43183;DHT22;28802;38.578;-0.066;2023-03-02T04:56:21;7.90;99.90
43183;DHT22;28802;38.578;-0.066;2023-03-02T04:58:47;7.80;99.90
43183;DHT22;28802;38.578;-0.066;2023-03-02T05:01:15;7.70;99.90
43183;DHT22;28802;38.578;-0.066;2023-03-02T05:03:42;7.70;99.90
43183;DHT22;28802;38.578;-0.066;2023-03-02T05:06:08;7.60;99.90
43183;DHT22;28802;38.578;-0.066;2023-03-02T05:08:35;7.60;99.90
43183;DHT22;28802;38.578;-0.066;2023-03-02T05:11:01;7.40;99.90
43183;DHT22;28802;38.578;-0.066;2023-03-02T05:13:27;7.30;99.90
43183;DHT22;28802;38.578;-0.066;2023-03-02T05:15:53;7.20;99.90
43183;DHT22;28802;38.578;-0.066;2023-03-02T05:18:23;7.20;99.90
43183;DHT22;28802;38.578;-0.066;2023-03-02T05:20:49;7.30;99.90
43183;DHT22;28802;38.578;-0.066;2023-03-02T05:23:16;7.20;99.90
43183;DHT22;28802;38.578;-0.066;2023-03-02T05:25:53;7.30;99.90
43183;DHT22;28802;38.578;-0.066;2023-03-02T05:28:20;7.40;99.90
43183;DHT22;28802;38.578;-0.066;2023-03-02T05:30:48;7.30;99.90
43183;DHT22;28802;38.578;-0.066;2023-03-02T05:33:15;7.30;99.90
43183;DHT22;28802;38.578;-0.066;2023-03-02T05:35:41;7.10;99.90
43183;DHT22;28802;38.578;-0.066;2023-03-02T05:38:08;7.00;99.90
43183;DHT22;28802;38.578;-0.066;2023-03-02T05:40:35;6.90;99.90
43183;DHT22;28802;38.578;-0.066;2023-03-02T05:43:01;7.00;99.90
43183;DHT22;28802;38.578;-0.066;2023-03-02T05:45:30;6.90;99.90
43183;DHT22;28802;38.578;-0.066;2023-03-02T05:47:56;6.80;99.90
43183;DHT22;28802;38.578;-0.066;2023-03-02T05:50:23;6.80;99.90
43183;DHT22;28802;38.578;-0.066;2023-03-02T05:52:49;6.80;99.90
43183;DHT22;28802;38.578;-0.066;2023-03-02T05:55:16;6.70;99.90
43183;DHT22;28802;38.578;-0.066;2023-03-02T05:57:44;6.60;99.90
43183;DHT22;28802;38.578;-0.066;2023-03-02T06:00:12;6.50;99.90
43183;DHT22;28802;38.578;-0.066;2023-03-02T06:02:39;6.40;99.90
43183;DHT22;28802;38.578;-0.066;2023-03-02T06:05:07;6.40;99.90
43183;DHT22;28802;38.578;-0.066;2023-03-02T06:07:34;6.40;99.90
43183;DHT22;28802;38.578;-0.066;2023-03-02T06:10:00;6.60;99.90
43183;DHT22;28802;38.578;-0.066;2023-03-02T06:12:26;6.50;99.90
43183;DHT22;28802;38.578;-0.066;2023-03-02T06:14:52;6.60;99.90
43183;DHT22;28802;38.578;-0.066;2023-03-02T06:17:18;6.50;99.90
43183;DHT22;28802;38.578;-0.066;2023-03-02T06:19:44;6.40;99.90
43183;DHT22;28802;38.578;-0.066;2023-03-02T06:22:10;6.50;99.90
43183;DHT22;28802;38.578;-0.066;2023-03-02T06:24:36;6.80;99.90
43183;DHT22;28802;38.578;-0.066;2023-03-02T06:27:02;6.80;99.90
43183;DHT22;28802;38.578;-0.066;2023-03-02T06:29:28;6.80;99.90
43183;DHT22;28802;38.578;-0.066;2023-03-02T06:31:54;6.70;99.90
43183;DHT22;28802;38.578;-0.066;2023-03-02T06:34:20;6.60;99.90
43183;DHT22;28802;38.578;-0.066;2023-03-02T06:36:46;6.50;99.90
43183;DHT22;28802;38.578;-0.066;2023-03-02T06:39:12;6.40;99.90
43183;DHT22;28802;38.578;-0.066;2023-03-02T06:41:45;6.40;99.90
43183;DHT22;28802;38.578;-0.066;2023-03-02T06:44:13;6.60;99.90
43183;DHT22;28802;38.578;-0.066;2023-03-02T06:46:39;6.70;99.90
43183;DHT22;28802;38.578;-0.066;2023-03-02T06:49:08;6.60;99.90
43183;DHT22;28802;38.578;-0.066;2023-03-02T06:51:35;6.80;99.90
43183;DHT22;28802;38.578;-0.066;2023-03-02T06:54:02;6.70;99.90
43183;DHT22;28802;38.578;-0.066;2023-03-02T06:56:29;6.80;99.90
43183;DHT22;28802;38.578;-0.066;2023-03-02T06:58:55;7.00;99.90
43183;DHT22;28802;38.578;-0.066;2023-03-02T07:01:21;7.10;99.90
43183;DHT22;28802;38.578;-0.066;2023-03-02T07:03:47;7.20;99.90
43183;DHT22;28802;38.578;-0.066;2023-03-02T07:06:13;7.10;99.90
43183;DHT22;28802;38.578;-0.066;2023-03-02T07:08:39;7.40;99.90
43183;DHT22;28802;38.578;-0.066;2023-03-02T07:11:07;7.20;99.90
43183;DHT22;28802;38.578;-0.066;2023-03-02T07:13:33;7.40;99.90
43183;DHT22;28802;38.578;-0.066;2023-03-02T07:15:59;7.40;99.90
43183;DHT22;28802;38.578;-0.066;2023-03-02T07:18:25;7.40;99.90
43183;DHT22;28802;38.578;-0.066;2023-03-02T07:20:51;7.40;99.90
43183;DHT22;28802;38.578;-0.066;2023-03-02T07:23:17;7.50;99.90
43183;DHT22;28802;38.578;-0.066;2023-03-02T07:25:43;7.40;99.90
43183;DHT22;28802;38.578;-0.066;2023-03-02T07:28:09;7.30;99.90
43183;DHT22;28802;38.578;-0.066;2023-03-02T07:30:36;7.40;99.90
43183;DHT22;28802;38.578;-0.066;2023-03-02T07:33:03;7.40;99.90
43183;DHT22;28802;38.578;-0.066;2023-03-02T07:35:29;7.40;99.90
43183;DHT22;28802;38.578;-0.066;2023-03-02T07:37:55;7.50;99.90
43183;DHT22;28802;38.578;-0.066;2023-03-02T07:40:21;7.70;99.90
43183;DHT22;28802;38.578;-0.066;2023-03-02T07:42:51;8.20;99.90
43183;DHT22;28802;38.578;-0.066;2023-03-02T07:45:17;8.40;99.90
43183;DHT22;28802;38.578;-0.066;2023-03-02T07:47:46;8.40;99.90
43183;DHT22;28802;38.578;-0.066;2023-03-02T07:50:12;8.60;99.90
43183;DHT22;28802;38.578;-0.066;2023-03-02T07:52:38;9.30;99.90
43183;DHT22;28802;38.578;-0.066;2023-03-02T07:55:04;10.50;99.90
43183;DHT22;28802;38.578;-0.066;2023-03-02T07:57:30;11.90;99.90
43183;DHT22;28802;38.578;-0.066;2023-03-02T07:59:56;13.00;99.90
43183;DHT22;28802;38.578;-0.066;2023-03-02T08:02:22;13.30;99.90
43183;DHT22;28802;38.578;-0.066;2023-03-02T08:04:50;13.70;99.90
43183;DHT22;28802;38.578;-0.066;2023-03-02T08:07:17;13.40;99.90
43183;DHT22;28802;38.578;-0.066;2023-03-02T08:09:43;12.80;99.90
43183;DHT22;28802;38.578;-0.066;2023-03-02T08:12:09;12.70;99.90
43183;DHT22;28802;38.578;-0.066;2023-03-02T08:14:37;12.20;99.90
43183;DHT22;28802;38.578;-0.066;2023-03-02T08:17:04;11.90;99.90
43183;DHT22;28802;38.578;-0.066;2023-03-02T08:19:31;12.00;99.90
43183;DHT22;28802;38.578;-0.066;2023-03-02T08:22:01;12.20;99.90
43183;DHT22;28802;38.578;-0.066;2023-03-02T08:24:27;12.40;99.90
43183;DHT22;28802;38.578;-0.066;2023-03-02T08:27:01;12.60;99.90
43183;DHT22;28802;38.578;-0.066;2023-03-02T08:29:28;12.90;99.90
43183;DHT22;28802;38.578;-0.066;2023-03-02T08:31:56;13.50;99.90
43183;DHT22;28802;38.578;-0.066;2023-03-02T08:34:23;13.20;99.90
43183;DHT22;28802;38.578;-0.066;2023-03-02T08:36:52;12.50;99.90
43183;DHT22;28802;38.578;-0.066;2023-03-02T08:39:18;12.90;99.90
43183;DHT22;28802;38.578;-0.066;2023-03-02T08:41:52;13.90;99.90
43183;DHT22;28802;38.578;-0.066;2023-03-02T08:44:19;14.90;99.90
43183;DHT22;28802;38.578;-0.066;2023-03-02T08:46:47;15.10;99.90
43183;DHT22;28802;38.578;-0.066;2023-03-02T08:49:15;15.30;99.90
43183;DHT22;28802;38.578;-0.066;2023-03-02T08:51:42;15.80;99.90
43183;DHT22;28802;38.578;-0.066;2023-03-02T08:54:10;15.80;99.90
43183;DHT22;28802;38.578;-0.066;2023-03-02T08:56:38;16.70;99.90
43183;DHT22;28802;38.578;-0.066;2023-03-02T08:59:06;17.40;99.90
43183;DHT22;28802;38.578;-0.066;2023-03-02T09:01:34;17.50;99.90
43183;DHT22;28802;38.578;-0.066;2023-03-02T09:04:02;18.00;99.90
43183;DHT22;28802;38.578;-0.066;2023-03-02T09:06:29;18.30;98.40
43183;DHT22;28802;38.578;-0.066;2023-03-02T09:08:56;18.30;97.40
43183;DHT22;28802;38.578;-0.066;2023-03-02T09:11:23;18.00;97.80
43183;DHT22;28802;38.578;-0.066;2023-03-02T09:13:51;18.40;97.40
43183;DHT22;28802;38.578;-0.066;2023-03-02T09:16:19;17.90;97.30
43183;DHT22;28802;38.578;-0.066;2023-03-02T09:18:50;17.40;97.50
43183;DHT22;28802;38.578;-0.066;2023-03-02T09:21:18;16.50;99.00
43183;DHT22;28802;38.578;-0.066;2023-03-02T09:23:44;15.30;99.90
43183;DHT22;28802;38.578;-0.066;2023-03-02T09:26:11;14.30;99.90
43183;DHT22;28802;38.578;-0.066;2023-03-02T09:28:37;13.50;99.90
43183;DHT22;28802;38.578;-0.066;2023-03-02T09:31:06;13.50;99.90
43183;DHT22;28802;38.578;-0.066;2023-03-02T09:33:33;13.80;99.90
43183;DHT22;28802;38.578;-0.066;2023-03-02T09:36:10;14.30;99.90
43183;DHT22;28802;38.578;-0.066;2023-03-02T09:38:39;15.80;99.90
43183;DHT22;28802;38.578;-0.066;2023-03-02T09:52:34;17.20;98.90
43183;DHT22;28802;38.578;-0.066;2023-03-02T09:55:21;17.10;97.60
43183;DHT22;28802;38.578;-0.066;2023-03-02T09:57:48;16.70;97.20
43183;DHT22;28802;38.578;-0.066;2023-03-02T10:00:35;17.00;96.50
43183;DHT22;28802;38.578;-0.066;2023-03-02T10:03:06;16.80;96.50
43183;DHT22;28802;38.578;-0.066;2023-03-02T10:05:41;17.40;95.60
43183;DHT22;28802;38.578;-0.066;2023-03-02T10:08:36;17.60;94.60
43183;DHT22;28802;38.578;-0.066;2023-03-02T10:13:57;18.20;91.80
43183;DHT22;28802;38.578;-0.066;2023-03-02T10:16:36;18.30;92.50
43183;DHT22;28802;38.578;-0.066;2023-03-02T10:19:05;18.40;91.90
43183;DHT22;28802;38.578;-0.066;2023-03-02T10:21:38;19.20;92.00
43183;DHT22;28802;38.578;-0.066;2023-03-02T10:24:31;19.10;90.60
43183;DHT22;28802;38.578;-0.066;2023-03-02T10:27:10;19.70;90.50
43183;DHT22;28802;38.578;-0.066;2023-03-02T10:32:44;19.50;84.10
43183;DHT22;28802;38.578;-0.066;2023-03-02T10:35:19;19.80;86.20
43183;DHT22;28802;38.578;-0.066;2023-03-02T10:37:51;19.40;86.10
43183;DHT22;28802;38.578;-0.066;2023-03-02T10:40:34;19.40;84.40
43183;DHT22;28802;38.578;-0.066;2023-03-02T10:43:04;19.10;84.70
43183;DHT22;28802;38.578;-0.066;2023-03-02T10:45:31;19.60;87.00
43183;DHT22;28802;38.578;-0.066;2023-03-02T10:48:07;20.40;82.80
43183;DHT22;28802;38.578;-0.066;2023-03-02T10:50:34;20.50;84.30
43183;DHT22;28802;38.578;-0.066;2023-03-02T10:53:04;21.20;80.80
43183;DHT22;28802;38.578;-0.066;2023-03-02T10:55:32;20.60;79.70
43183;DHT22;28802;38.578;-0.066;2023-03-02T10:58:17;21.00;79.90
43183;DHT22;28802;38.578;-0.066;2023-03-02T11:03:31;21.20;77.50
43183;DHT22;28802;38.578;-0.066;2023-03-02T11:06:10;20.90;78.40
43183;DHT22;28802;38.578;-0.066;2023-03-02T11:08:37;21.00;78.20
43183;DHT22;28802;38.578;-0.066;2023-03-02T11:11:04;21.30;76.40
43183;DHT22;28802;38.578;-0.066;2023-03-02T11:16:42;21.20;75.90
43183;DHT22;28802;38.578;-0.066;2023-03-02T11:21:37;21.90;75.00
43183;DHT22;28802;38.578;-0.066;2023-03-02T11:24:38;22.30;73.10
43183;DHT22;28802;38.578;-0.066;2023-03-02T11:27:21;21.30;71.30
43183;DHT22;28802;38.578;-0.066;2023-03-02T11:29:57;20.50;74.10
43183;DHT22;28802;38.578;-0.066;2023-03-02T11:32:41;19.90;74.60
43183;DHT22;28802;38.578;-0.066;2023-03-02T11:35:14;19.60;75.80
43183;DHT22;28802;38.578;-0.066;2023-03-02T11:37:51;19.40;77.80
43183;DHT22;28802;38.578;-0.066;2023-03-02T11:42:58;18.40;83.40
43183;DHT22;28802;38.578;-0.066;2023-03-02T11:45:30;17.60;88.30
43183;DHT22;28802;38.578;-0.066;2023-03-02T11:48:16;17.40;91.10
43183;DHT22;28802;38.578;-0.066;2023-03-02T11:51:13;17.70;90.70
43183;DHT22;28802;38.578;-0.066;2023-03-02T11:53:47;17.80;90.40
43183;DHT22;28802;38.578;-0.066;2023-03-02T11:56:15;17.80;91.90
43183;DHT22;28802;38.578;-0.066;2023-03-02T11:58:42;17.10;93.70
43183;DHT22;28802;38.578;-0.066;2023-03-02T12:01:22;16.50;95.10
43183;DHT22;28802;38.578;-0.066;2023-03-02T12:03:50;16.20;95.40
43183;DHT22;28802;38.578;-0.066;2023-03-02T12:08:44;16.30;97.20
43183;DHT22;28802;38.578;-0.066;2023-03-02T12:14:01;15.90;98.70
43183;DHT22;28802;38.578;-0.066;2023-03-02T12:16:36;15.50;97.90
43183;DHT22;28802;38.578;-0.066;2023-03-02T12:19:26;15.40;99.50
43183;DHT22;28802;38.578;-0.066;2023-03-02T12:22:03;15.30;99.90
43183;DHT22;28802;38.578;-0.066;2023-03-02T12:24:34;15.60;99.90
43183;DHT22;28802;38.578;-0.066;2023-03-02T12:27:24;16.30;99.90
43183;DHT22;28802;38.578;-0.066;2023-03-02T12:30:22;16.10;99.90
43183;DHT22;28802;38.578;-0.066;2023-03-02T12:35:32;16.20;99.90
43183;DHT22;28802;38.578;-0.066;2023-03-02T12:46:36;15.70;99.90
43183;DHT22;28802;38.578;-0.066;2023-03-02T12:49:41;15.60;99.90
43183;DHT22;28802;38.578;-0.066;2023-03-02T12:52:44;16.10;99.90
43183;DHT22;28802;38.578;-0.066;2023-03-02T12:55:18;16.60;99.90
43183;DHT22;28802;38.578;-0.066;2023-03-02T12:57:56;16.00;99.90
43183;DHT22;28802;38.578;-0.066;2023-03-02T13:00:24;15.30;99.90
43183;DHT22;28802;38.578;-0.066;2023-03-02T13:02:54;15.70;99.90
43183;DHT22;28802;38.578;-0.066;2023-03-02T13:05:29;15.90;99.90
43183;DHT22;28802;38.578;-0.066;2023-03-02T13:08:00;15.90;99.90
43183;DHT22;28802;38.578;-0.066;2023-03-02T13:12:58;15.30;99.90
43183;DHT22;28802;38.578;-0.066;2023-03-02T13:15:25;14.90;99.90
43183;DHT22;28802;38.578;-0.066;2023-03-02T13:17:58;14.90;99.90
43183;DHT22;28802;38.578;-0.066;2023-03-02T13:20:29;15.10;99.90
43183;DHT22;28802;38.578;-0.066;2023-03-02T13:22:58;15.00;99.90
43183;DHT22;28802;38.578;-0.066;2023-03-02T13:25:29;14.80;99.90
43183;DHT22;28802;38.578;-0.066;2023-03-02T13:28:00;14.70;99.90
43183;DHT22;28802;38.578;-0.066;2023-03-02T13:30:34;14.70;99.90
43183;DHT22;28802;38.578;-0.066;2023-03-02T13:33:15;14.60;99.90
43183;DHT22;28802;38.578;-0.066;2023-03-02T13:35:47;14.90;99.90
43183;DHT22;28802;38.578;-0.066;2023-03-02T13:38:17;14.90;99.90
43183;DHT22;28802;38.578;-0.066;2023-03-02T13:40:49;15.10;99.90
43183;DHT22;28802;38.578;-0.066;2023-03-02T13:43:37;15.10;99.90
43183;DHT22;28802;38.578;-0.066;2023-03-02T13:48:40;15.40;99.90
43183;DHT22;28802;38.578;-0.066;2023-03-02T13:51:18;15.20;99.90
43183;DHT22;28802;38.578;-0.066;2023-03-02T13:54:02;15.00;99.90
43183;DHT22;28802;38.578;-0.066;2023-03-02T13:56:38;14.70;99.90
43183;DHT22;28802;38.578;-0.066;2023-03-02T13:59:14;14.50;99.90
43183;DHT22;28802;38.578;-0.066;2023-03-02T14:01:41;14.50;99.90
43183;DHT22;28802;38.578;-0.066;2023-03-02T14:04:11;14.40;99.90
43183;DHT22;28802;38.578;-0.066;2023-03-02T14:06:37;14.30;99.90
43183;DHT22;28802;38.578;-0.066;2023-03-02T14:09:04;14.40;99.90
43183;DHT22;28802;38.578;-0.066;2023-03-02T14:11:35;14.50;99.90
43183;DHT22;28802;38.578;-0.066;2023-03-02T14:14:05;14.30;99.90
43183;DHT22;28802;38.578;-0.066;2023-03-02T14:16:32;14.00;99.90
43183;DHT22;28802;38.578;-0.066;2023-03-02T14:19:03;13.90;99.90
43183;DHT22;28802;38.578;-0.066;2023-03-02T14:22:09;14.10;99.90
43183;DHT22;28802;38.578;-0.066;2023-03-02T14:24:36;14.20;99.90
43183;DHT22;28802;38.578;-0.066;2023-03-02T14:27:07;14.20;99.90
43183;DHT22;28802;38.578;-0.066;2023-03-02T14:29:35;14.00;99.90
43183;DHT22;28802;38.578;-0.066;2023-03-02T14:32:03;13.90;99.90
43183;DHT22;28802;38.578;-0.066;2023-03-02T14:34:32;13.70;99.90
43183;DHT22;28802;38.578;-0.066;2023-03-02T14:37:01;13.70;99.90
43183;DHT22;28802;38.578;-0.066;2023-03-02T14:42:01;13.70;99.90
43183;DHT22;28802;38.578;-0.066;2023-03-02T14:44:28;13.80;99.90
43183;DHT22;28802;38.578;-0.066;2023-03-02T14:46:54;13.70;99.90
43183;DHT22;28802;38.578;-0.066;2023-03-02T14:49:22;13.50;99.90
43183;DHT22;28802;38.578;-0.066;2023-03-02T14:52:12;13.40;99.90
43183;DHT22;28802;38.578;-0.066;2023-03-02T14:54:45;13.40;99.90
43183;DHT22;28802;38.578;-0.066;2023-03-02T14:57:25;13.30;99.90
43183;DHT22;28802;38.578;-0.066;2023-03-02T14:59:53;13.20;99.90
43183;DHT22;28802;38.578;-0.066;2023-03-02T15:02:21;13.30;99.90
43183;DHT22;28802;38.578;-0.066;2023-03-02T15:04:48;13.30;99.90
43183;DHT22;28802;38.578;-0.066;2023-03-02T15:07:19;13.20;99.90
43183;DHT22;28802;38.578;-0.066;2023-03-02T15:09:46;13.10;99.90
43183;DHT22;28802;38.578;-0.066;2023-03-02T15:12:12;13.00;99.90
43183;DHT22;28802;38.578;-0.066;2023-03-02T15:14:39;13.00;99.90
43183;DHT22;28802;38.578;-0.066;2023-03-02T15:17:05;13.00;99.90
43183;DHT22;28802;38.578;-0.066;2023-03-02T15:19:32;13.00;99.90
43183;DHT22;28802;38.578;-0.066;2023-03-02T15:21:59;13.00;99.90
43183;DHT22;28802;38.578;-0.066;2023-03-02T15:24:25;12.90;99.90
43183;DHT22;28802;38.578;-0.066;2023-03-02T15:26:53;12.80;99.90
43183;DHT22;28802;38.578;-0.066;2023-03-02T15:29:21;12.90;99.90
43183;DHT22;28802;38.578;-0.066;2023-03-02T15:31:48;12.90;99.90
43183;DHT22;28802;38.578;-0.066;2023-03-02T15:34:15;12.80;99.90
43183;DHT22;28802;38.578;-0.066;2023-03-02T15:36:45;12.70;99.90
43183;DHT22;28802;38.578;-0.066;2023-03-02T15:39:13;12.70;99.90
43183;DHT22;28802;38.578;-0.066;2023-03-02T15:41:41;12.80;99.90
43183;DHT22;28802;38.578;-0.066;2023-03-02T15:44:17;12.80;99.90
43183;DHT22;28802;38.578;-0.066;2023-03-02T15:46:48;12.70;99.90
43183;DHT22;28802;38.578;-0.066;2023-03-02T15:49:16;12.60;99.90
43183;DHT22;28802;38.578;-0.066;2023-03-02T15:51:45;12.60;99.90
43183;DHT22;28802;38.578;-0.066;2023-03-02T15:54:11;12.60;99.90
43183;DHT22;28802;38.578;-0.066;2023-03-02T15:56:37;12.60;99.90
43183;DHT22;28802;38.578;-0.066;2023-03-02T15:59:04;12.60;99.90
43183;DHT22;28802;38.578;-0.066;2023-03-02T16:01:35;12.70;99.90
43183;DHT22;28802;38.578;-0.066;2023-03-02T16:04:03;12.60;99.90
43183;DHT22;28802;38.578;-0.066;2023-03-02T16:06:41;12.60;99.90
43183;DHT22;28802;38.578;-0.066;2023-03-02T16:09:08;12.50;99.90
43183;DHT22;28802;38.578;-0.066;2023-03-02T16:11:34;12.50;99.90
43183;DHT22;28802;38.578;-0.066;2023-03-02T16:14:01;12.40;99.90
43183;DHT22;28802;38.578;-0.066;2023-03-02T16:16:29;12.40;99.90
43183;DHT22;28802;38.578;-0.066;2023-03-02T16:18:57;12.30;99.90
43183;DHT22;28802;38.578;-0.066;2023-03-02T16:21:26;12.30;99.90
43183;DHT22;28802;38.578;-0.066;2023-03-02T16:23:55;12.30;99.90
43183;DHT22;28802;38.578;-0.066;2023-03-02T16:26:31;12.20;99.90
43183;DHT22;28802;38.578;-0.066;2023-03-02T16:29:01;12.10;99.90
43183;DHT22;28802;38.578;-0.066;2023-03-02T16:31:28;12.10;99.90
43183;DHT22;28802;38.578;-0.066;2023-03-02T16:33:57;12.00;99.90
43183;DHT22;28802;38.578;-0.066;2023-03-02T16:36:25;12.00;99.90
43183;DHT22;28802;38.578;-0.066;2023-03-02T16:38:51;12.00;99.90
43183;DHT22;28802;38.578;-0.066;2023-03-02T16:41:19;11.90;99.90
43183;DHT22;28802;38.578;-0.066;2023-03-02T16:43:50;11.80;99.90